sensor_id;sensor_type;location;lat;lon;timestamp;P1;durP1;ratioP1;P2;durP2;ratioP2
67544;SDS011;54380;47.770;11.150;2024-03-02T00:00:21;11.38;;;3.20;;
67544;SDS011;54380;47.770;11.150;2024-03-02T00:02:49;10.48;;;3.10;;
67544;SDS011;54380;47.770;11.150;2024-03-02T00:05:16;11.02;;;2.83;;
67544;SDS011;54380;47.770;11.150;2024-03-02T00:07:45;10.85;;;2.47;;
67544;SDS011;54380;47.770;11.150;2024-03-02T00:10:16;10.02;;;2.53;;
67544;SDS011;54380;47.770;11.150;2024-03-02T00:12:47;10.77;;;1.98;;
67544;SDS011;54380;47.770;11.150;2024-03-02T00:15:22;10.63;;;3.00;;
67544;SDS011;54380;47.770;11.150;2024-03-02T00:18:07;13.20;;;3.78;;
67544;SDS011;54380;47.770;11.150;2024-03-02T00:20:36;13.52;;;4.05;;
67544;SDS011;54380;47.770;11.150;2024-03-02T00:23:04;12.50;;;2.92;;
67544;SDS011;54380;47.770;11.150;2024-03-02T00:25:38;10.90;;;2.53;;
67544;SDS011;54380;47.770;11.150;2024-03-02T00:28:11;9.60;;;2.13;;
67544;SDS011;54380;47.770;11.150;2024-03-02T00:33:31;16.33;;;5.10;;
67544;SDS011;54380;47.770;11.150;2024-03-02T00:35:59;14.05;;;5.05;;
67544;SDS011;54380;47.770;11.150;2024-03-02T00:38:27;14.07;;;3.90;;
67544;SDS011;54380;47.770;11.150;2024-03-02T00:40:56;11.40;;;3.40;;
67544;SDS011;54380;47.770;11.150;2024-03-02T00:43:43;11.93;;;3.88;;
67544;SDS011;54380;47.770;11.150;2024-03-02T00:46:18;8.98;;;2.17;;
67544;SDS011;54380;47.770;11.150;2024-03-02T00:48:51;9.13;;;2.20;;
67544;SDS011;54380;47.770;11.150;2024-03-02T00:51:21;10.65;;;3.05;;
67544;SDS011;54380;47.770;11.150;2024-03-02T00:53:49;10.95;;;2.97;;
67544;SDS011;54380;47.770;11.150;2024-03-02T00:56:17;10.40;;;1.83;;
67544;SDS011;54380;47.770;11.150;2024-03-02T00:58:43;10.25;;;2.60;;
67544;SDS011;54380;47.770;11.150;2024-03-02T01:01:11;10.60;;;2.53;;
67544;SDS011;54380;47.770;11.150;2024-03-02T01:03:37;9.88;;;2.28;;
67544;SDS011;54380;47.770;11.150;2024-03-02T01:06:06;10.90;;;2.97;;
67544;SDS011;54380;47.770;11.150;2024-03-02T01:08:33;10.40;;;3.10;;
67544;SDS011;54380;47.770;11.150;2024-03-02T01:11:00;11.52;;;2.88;;
67544;SDS011;54380;47.770;11.150;2024-03-02T01:13:27;11.07;;;3.30;;
67544;SDS011;54380;47.770;11.150;2024-03-02T01:15:54;10.02;;;2.53;;
67544;SDS011;54380;47.770;11.150;2024-03-02T01:18:21;9.73;;;2.22;;
67544;SDS011;54380;47.770;11.150;2024-03-02T01:20:51;9.75;;;2.08;;
67544;SDS011;54380;47.770;11.150;2024-03-02T01:23:19;9.80;;;3.50;;
67544;SDS011;54380;47.770;11.150;2024-03-02T01:25:46;9.82;;;2.30;;
67544;SDS011;54380;47.770;11.150;2024-03-02T01:28:14;11.77;;;2.97;;
67544;SDS011;54380;47.770;11.150;2024-03-02T01:30:41;10.90;;;2.65;;
67544;SDS011;54380;47.770;11.150;2024-03-02T01:33:08;10.00;;;1.95;;
67544;SDS011;54380;47.770;11.150;2024-03-02T01:35:35;10.52;;;2.08;;
67544;SDS011;54380;47.770;11.150;2024-03-02T01:38:01;9.05;;;2.03;;
67544;SDS011;54380;47.770;11.150;2024-03-02T01:40:30;9.07;;;2.25;;
67544;SDS011;54380;47.770;11.150;2024-03-02T01:42:56;9.10;;;2.00;;
67544;SDS011;54380;47.770;11.150;2024-03-02T01:45:25;9.65;;;2.22;;
67544;SDS011;54380;47.770;11.150;2024-03-02T01:47:52;11.00;;;2.38;;
67544;SDS011;54380;47.770;11.150;2024-03-02T01:50:24;9.98;;;2.38;;
67544;SDS011;54380;47.770;11.150;2024-03-02T01:52:52;10.57;;;2.55;;
67544;SDS011;54380;47.770;11.150;2024-03-02T01:55:20;11.82;;;2.75;;
67544;SDS011;54380;47.770;11.150;2024-03-02T01:57:48;7.30;;;1.42;;
67544;SDS011;54380;47.770;11.150;2024-03-02T02:00:17;9.55;;;2.25;;
67544;SDS011;54380;47.770;11.150;2024-03-02T02:02:45;10.43;;;1.85;;
67544;SDS011;54380;47.770;11.150;2024-03-02T02:05:12;9.70;;;1.75;;
67544;SDS011;54380;47.770;11.150;2024-03-02T02:07:40;10.52;;;2.08;;
67544;SDS011;54380;47.770;11.150;2024-03-02T02:10:07;10.45;;;2.03;;
67544;SDS011;54380;47.770;11.150;2024-03-02T02:12:34;9.38;;;2.03;;
67544;SDS011;54380;47.770;11.150;2024-03-02T02:15:04;9.82;;;2.28;;
67544;SDS011;54380;47.770;11.150;2024-03-02T02:17:48;9.98;;;2.33;;
67544;SDS011;54380;47.770;11.150;2024-03-02T02:20:14;8.68;;;1.75;;
67544;SDS011;54380;47.770;11.150;2024-03-02T02:22:53;10.15;;;2.17;;
67544;SDS011;54380;47.770;11.150;2024-03-02T02:25:21;9.95;;;2.05;;
67544;SDS011;54380;47.770;11.150;2024-03-02T02:27:48;7.60;;;1.80;;
67544;SDS011;54380;47.770;11.150;2024-03-02T02:30:18;8.65;;;1.85;;
67544;SDS011;54380;47.770;11.150;2024-03-02T02:32:46;8.40;;;1.73;;
67544;SDS011;54380;47.770;11.150;2024-03-02T02:35:13;8.32;;;1.77;;
67544;SDS011;54380;47.770;11.150;2024-03-02T02:37:40;8.05;;;1.67;;
67544;SDS011;54380;47.770;11.150;2024-03-02T02:40:09;8.32;;;1.63;;
67544;SDS011;54380;47.770;11.150;2024-03-02T02:42:36;8.02;;;1.70;;
67544;SDS011;54380;47.770;11.150;2024-03-02T02:45:03;9.40;;;1.58;;
67544;SDS011;54380;47.770;11.150;2024-03-02T02:47:30;10.30;;;1.65;;
67544;SDS011;54380;47.770;11.150;2024-03-02T02:49:57;7.20;;;1.27;;
67544;SDS011;54380;47.770;11.150;2024-03-02T02:52:24;8.25;;;1.48;;
67544;SDS011;54380;47.770;11.150;2024-03-02T02:54:50;8.95;;;1.70;;
67544;SDS011;54380;47.770;11.150;2024-03-02T02:57:20;7.95;;;1.65;;
67544;SDS011;54380;47.770;11.150;2024-03-02T02:59:47;6.85;;;1.10;;
67544;SDS011;54380;47.770;11.150;2024-03-02T03:02:14;8.65;;;1.50;;
67544;SDS011;54380;47.770;11.150;2024-03-02T03:04:40;8.10;;;1.60;;
67544;SDS011;54380;47.770;11.150;2024-03-02T03:07:07;8.90;;;1.45;;
67544;SDS011;54380;47.770;11.150;2024-03-02T03:09:36;8.88;;;1.42;;
67544;SDS011;54380;47.770;11.150;2024-03-02T03:12:04;9.00;;;1.58;;
67544;SDS011;54380;47.770;11.150;2024-03-02T03:14:32;8.80;;;1.83;;
67544;SDS011;54380;47.770;11.150;2024-03-02T03:16:59;7.78;;;1.52;;
67544;SDS011;54380;47.770;11.150;2024-03-02T03:19:25;8.68;;;1.40;;
67544;SDS011;54380;47.770;11.150;2024-03-02T03:21:52;7.38;;;1.45;;
67544;SDS011;54380;47.770;11.150;2024-03-02T03:24:19;7.60;;;1.48;;
67544;SDS011;54380;47.770;11.150;2024-03-02T03:26:46;7.63;;;1.77;;
67544;SDS011;54380;47.770;11.150;2024-03-02T03:29:13;9.27;;;1.80;;
67544;SDS011;54380;47.770;11.150;2024-03-02T03:31:41;7.82;;;1.38;;
67544;SDS011;54380;47.770;11.150;2024-03-02T03:34:08;7.05;;;1.38;;
67544;SDS011;54380;47.770;11.150;2024-03-02T03:36:35;8.38;;;1.98;;
67544;SDS011;54380;47.770;11.150;2024-03-02T03:39:03;7.88;;;1.42;;
67544;SDS011;54380;47.770;11.150;2024-03-02T03:41:31;6.20;;;1.10;;
67544;SDS011;54380;47.770;11.150;2024-03-02T03:43:58;7.75;;;1.60;;
67544;SDS011;54380;47.770;11.150;2024-03-02T03:46:25;8.32;;;1.67;;
67544;SDS011;54380;47.770;11.150;2024-03-02T03:48:53;6.32;;;1.17;;
67544;SDS011;54380;47.770;11.150;2024-03-02T03:51:19;7.20;;;1.35;;
67544;SDS011;54380;47.770;11.150;2024-03-02T03:53:46;7.32;;;1.40;;
67544;SDS011;54380;47.770;11.150;2024-03-02T03:56:13;6.97;;;1.10;;
67544;SDS011;54380;47.770;11.150;2024-03-02T03:58:40;5.68;;;1.10;;
67544;SDS011;54380;47.770;11.150;2024-03-02T04:01:06;9.00;;;1.55;;
67544;SDS011;54380;47.770;11.150;2024-03-02T04:03:34;7.88;;;1.52;;
67544;SDS011;54380;47.770;11.150;2024-03-02T04:06:02;9.20;;;1.90;;
67544;SDS011;54380;47.770;11.150;2024-03-02T04:08:29;7.25;;;1.40;;
67544;SDS011;54380;47.770;11.150;2024-03-02T04:10:56;7.60;;;1.55;;
67544;SDS011;54380;47.770;11.150;2024-03-02T04:13:22;7.68;;;1.38;;
67544;SDS011;54380;47.770;11.150;2024-03-02T04:15:49;8.40;;;2.05;;
67544;SDS011;54380;47.770;11.150;2024-03-02T04:18:16;7.95;;;1.33;;
67544;SDS011;54380;47.770;11.150;2024-03-02T04:20:42;7.78;;;1.35;;
67544;SDS011;54380;47.770;11.150;2024-03-02T04:23:10;8.15;;;1.48;;
67544;SDS011;54380;47.770;11.150;2024-03-02T04:25:37;7.63;;;1.55;;
67544;SDS011;54380;47.770;11.150;2024-03-02T04:28:04;7.30;;;1.58;;
67544;SDS011;54380;47.770;11.150;2024-03-02T04:30:31;9.18;;;1.63;;
67544;SDS011;54380;47.770;11.150;2024-03-02T04:32:58;9.05;;;1.65;;
67544;SDS011;54380;47.770;11.150;2024-03-02T04:35:24;8.43;;;1.63;;
67544;SDS011;54380;47.770;11.150;2024-03-02T04:37:51;9.45;;;1.80;;
67544;SDS011;54380;47.770;11.150;2024-03-02T04:40:19;11.70;;;2.90;;
67544;SDS011;54380;47.770;11.150;2024-03-02T04:42:46;12.15;;;3.30;;
67544;SDS011;54380;47.770;11.150;2024-03-02T04:45:13;11.07;;;2.75;;
67544;SDS011;54380;47.770;11.150;2024-03-02T04:47:40;12.95;;;3.45;;
67544;SDS011;54380;47.770;11.150;2024-03-02T04:50:07;13.18;;;3.95;;
67544;SDS011;54380;47.770;11.150;2024-03-02T04:52:34;14.18;;;4.35;;
67544;SDS011;54380;47.770;11.150;2024-03-02T04:55:01;14.57;;;4.70;;
67544;SDS011;54380;47.770;11.150;2024-03-02T04:57:44;14.23;;;4.10;;
67544;SDS011;54380;47.770;11.150;2024-03-02T05:00:12;14.15;;;4.75;;
67544;SDS011;54380;47.770;11.150;2024-03-02T05:02:40;11.02;;;3.20;;
67544;SDS011;54380;47.770;11.150;2024-03-02T05:05:06;19.67;;;5.80;;
67544;SDS011;54380;47.770;11.150;2024-03-02T05:07:33;14.85;;;4.07;;
67544;SDS011;54380;47.770;11.150;2024-03-02T05:10:00;8.80;;;1.92;;
67544;SDS011;54380;47.770;11.150;2024-03-02T05:12:27;12.50;;;3.60;;
67544;SDS011;54380;47.770;11.150;2024-03-02T05:15:11;13.23;;;3.90;;
67544;SDS011;54380;47.770;11.150;2024-03-02T05:17:39;11.05;;;2.35;;
67544;SDS011;54380;47.770;11.150;2024-03-02T05:20:07;8.38;;;1.70;;
67544;SDS011;54380;47.770;11.150;2024-03-02T05:22:34;10.50;;;2.50;;
67544;SDS011;54380;47.770;11.150;2024-03-02T05:25:01;11.98;;;2.55;;
67544;SDS011;54380;47.770;11.150;2024-03-02T05:27:29;11.27;;;3.10;;
67544;SDS011;54380;47.770;11.150;2024-03-02T05:29:56;10.43;;;2.83;;
67544;SDS011;54380;47.770;11.150;2024-03-02T05:32:26;9.30;;;1.90;;
67544;SDS011;54380;47.770;11.150;2024-03-02T05:34:52;9.45;;;1.90;;
67544;SDS011;54380;47.770;11.150;2024-03-02T05:37:19;10.27;;;2.50;;
67544;SDS011;54380;47.770;11.150;2024-03-02T05:39:46;10.05;;;2.55;;
67544;SDS011;54380;47.770;11.150;2024-03-02T05:42:13;10.32;;;2.38;;
67544;SDS011;54380;47.770;11.150;2024-03-02T05:44:39;12.50;;;2.55;;
67544;SDS011;54380;47.770;11.150;2024-03-02T05:47:06;9.27;;;1.77;;
67544;SDS011;54380;47.770;11.150;2024-03-02T05:49:36;8.43;;;1.90;;
67544;SDS011;54380;47.770;11.150;2024-03-02T05:52:03;11.00;;;2.22;;
67544;SDS011;54380;47.770;11.150;2024-03-02T05:54:30;9.77;;;2.25;;
67544;SDS011;54380;47.770;11.150;2024-03-02T05:56:57;9.50;;;2.17;;
67544;SDS011;54380;47.770;11.150;2024-03-02T05:59:42;10.48;;;2.97;;
67544;SDS011;54380;47.770;11.150;2024-03-02T06:02:10;9.98;;;2.55;;
67544;SDS011;54380;47.770;11.150;2024-03-02T06:04:38;9.48;;;2.35;;
67544;SDS011;54380;47.770;11.150;2024-03-02T06:07:05;11.00;;;3.08;;
67544;SDS011;54380;47.770;11.150;2024-03-02T06:09:32;11.30;;;3.20;;
67544;SDS011;54380;47.770;11.150;2024-03-02T06:11:59;11.57;;;2.47;;
67544;SDS011;54380;47.770;11.150;2024-03-02T06:14:25;9.73;;;2.45;;
67544;SDS011;54380;47.770;11.150;2024-03-02T06:16:52;9.52;;;2.35;;
67544;SDS011;54380;47.770;11.150;2024-03-02T06:19:19;11.52;;;3.42;;
67544;SDS011;54380;47.770;11.150;2024-03-02T06:21:47;8.70;;;1.52;;
67544;SDS011;54380;47.770;11.150;2024-03-02T06:24:14;10.13;;;2.28;;
67544;SDS011;54380;47.770;11.150;2024-03-02T06:26:41;16.33;;;2.90;;
67544;SDS011;54380;47.770;11.150;2024-03-02T06:29:07;9.57;;;2.78;;
67544;SDS011;54380;47.770;11.150;2024-03-02T06:31:34;7.38;;;1.70;;
67544;SDS011;54380;47.770;11.150;2024-03-02T06:34:01;9.07;;;2.10;;
67544;SDS011;54380;47.770;11.150;2024-03-02T06:36:30;14.30;;;3.88;;
67544;SDS011;54380;47.770;11.150;2024-03-02T06:38:58;10.55;;;2.38;;
67544;SDS011;54380;47.770;11.150;2024-03-02T06:41:25;9.45;;;2.30;;
67544;SDS011;54380;47.770;11.150;2024-03-02T06:43:53;13.07;;;2.90;;
67544;SDS011;54380;47.770;11.150;2024-03-02T06:46:26;12.60;;;3.40;;
67544;SDS011;54380;47.770;11.150;2024-03-02T06:48:52;11.93;;;3.45;;
67544;SDS011;54380;47.770;11.150;2024-03-02T06:51:19;10.82;;;2.47;;
67544;SDS011;54380;47.770;11.150;2024-03-02T06:53:46;18.65;;;5.00;;
67544;SDS011;54380;47.770;11.150;2024-03-02T06:56:14;12.07;;;3.53;;
67544;SDS011;54380;47.770;11.150;2024-03-02T06:58:41;12.93;;;3.83;;
67544;SDS011;54380;47.770;11.150;2024-03-02T07:01:09;12.93;;;2.95;;
67544;SDS011;54380;47.770;11.150;2024-03-02T07:03:36;9.63;;;2.25;;
67544;SDS011;54380;47.770;11.150;2024-03-02T07:06:03;13.20;;;3.45;;
67544;SDS011;54380;47.770;11.150;2024-03-02T07:08:30;12.07;;;3.20;;
67544;SDS011;54380;47.770;11.150;2024-03-02T07:10:56;14.23;;;4.00;;
67544;SDS011;54380;47.770;11.150;2024-03-02T07:13:25;12.20;;;4.00;;
67544;SDS011;54380;47.770;11.150;2024-03-02T07:15:51;14.10;;;4.97;;
67544;SDS011;54380;47.770;11.150;2024-03-02T07:18:31;12.60;;;3.88;;
67544;SDS011;54380;47.770;11.150;2024-03-02T07:20:57;14.50;;;4.95;;
67544;SDS011;54380;47.770;11.150;2024-03-02T07:23:26;15.30;;;5.00;;
67544;SDS011;54380;47.770;11.150;2024-03-02T07:25:53;14.40;;;5.10;;
67544;SDS011;54380;47.770;11.150;2024-03-02T07:28:27;14.88;;;5.50;;
67544;SDS011;54380;47.770;11.150;2024-03-02T07:30:57;19.63;;;4.88;;
67544;SDS011;54380;47.770;11.150;2024-03-02T07:33:25;13.27;;;4.53;;
67544;SDS011;54380;47.770;11.150;2024-03-02T07:35:52;15.00;;;5.50;;
67544;SDS011;54380;47.770;11.150;2024-03-02T07:38:20;16.70;;;6.35;;
67544;SDS011;54380;47.770;11.150;2024-03-02T07:40:47;16.52;;;5.43;;
67544;SDS011;54380;47.770;11.150;2024-03-02T07:43:16;13.77;;;4.65;;
67544;SDS011;54380;47.770;11.150;2024-03-02T07:45:45;16.00;;;5.68;;
67544;SDS011;54380;47.770;11.150;2024-03-02T07:48:11;11.93;;;3.28;;
67544;SDS011;54380;47.770;11.150;2024-03-02T07:50:38;12.98;;;4.07;;
67544;SDS011;54380;47.770;11.150;2024-03-02T07:53:05;12.98;;;3.58;;
67544;SDS011;54380;47.770;11.150;2024-03-02T07:55:33;10.00;;;2.95;;
67544;SDS011;54380;47.770;11.150;2024-03-02T07:58:00;11.18;;;3.10;;
67544;SDS011;54380;47.770;11.150;2024-03-02T08:00:28;13.13;;;4.18;;
67544;SDS011;54380;47.770;11.150;2024-03-02T08:02:56;12.00;;;3.22;;
67544;SDS011;54380;47.770;11.150;2024-03-02T08:05:23;11.30;;;3.15;;
67544;SDS011;54380;47.770;11.150;2024-03-02T08:07:49;11.30;;;3.33;;
67544;SDS011;54380;47.770;11.150;2024-03-02T08:10:19;10.95;;;2.78;;
67544;SDS011;54380;47.770;11.150;2024-03-02T08:12:46;10.27;;;2.33;;
67544;SDS011;54380;47.770;11.150;2024-03-02T08:15:13;10.45;;;2.42;;
67544;SDS011;54380;47.770;11.150;2024-03-02T08:17:40;10.60;;;2.28;;
67544;SDS011;54380;47.770;11.150;2024-03-02T08:20:13;11.27;;;3.33;;
67544;SDS011;54380;47.770;11.150;2024-03-02T08:22:40;11.45;;;2.97;;
67544;SDS011;54380;47.770;11.150;2024-03-02T08:25:07;9.00;;;2.20;;
67544;SDS011;54380;47.770;11.150;2024-03-02T08:27:34;9.70;;;2.00;;
67544;SDS011;54380;47.770;11.150;2024-03-02T08:30:02;9.50;;;2.42;;
67544;SDS011;54380;47.770;11.150;2024-03-02T08:32:33;10.00;;;2.40;;
67544;SDS011;54380;47.770;11.150;2024-03-02T08:34:59;13.05;;;3.88;;
67544;SDS011;54380;47.770;11.150;2024-03-02T08:37:27;15.73;;;2.50;;
67544;SDS011;54380;47.770;11.150;2024-03-02T08:39:54;12.05;;;3.17;;
67544;SDS011;54380;47.770;11.150;2024-03-02T08:42:21;9.90;;;2.55;;
67544;SDS011;54380;47.770;11.150;2024-03-02T08:44:49;9.63;;;2.55;;
67544;SDS011;54380;47.770;11.150;2024-03-02T08:47:16;9.63;;;2.08;;
67544;SDS011;54380;47.770;11.150;2024-03-02T08:49:43;9.52;;;2.05;;
67544;SDS011;54380;47.770;11.150;2024-03-02T08:52:09;9.38;;;2.22;;
67544;SDS011;54380;47.770;11.150;2024-03-02T08:54:37;10.30;;;2.15;;
67544;SDS011;54380;47.770;11.150;2024-03-02T08:57:04;9.20;;;2.15;;
67544;SDS011;54380;47.770;11.150;2024-03-02T08:59:31;10.52;;;1.88;;
67544;SDS011;54380;47.770;11.150;2024-03-02T09:01:58;9.57;;;2.03;;
67544;SDS011;54380;47.770;11.150;2024-03-02T09:04:25;9.45;;;1.92;;
67544;SDS011;54380;47.770;11.150;2024-03-02T09:06:54;8.02;;;1.73;;
67544;SDS011;54380;47.770;11.150;2024-03-02T09:09:22;9.30;;;1.95;;
67544;SDS011;54380;47.770;11.150;2024-03-02T09:11:51;9.85;;;1.85;;
67544;SDS011;54380;47.770;11.150;2024-03-02T09:14:18;8.98;;;1.85;;
67544;SDS011;54380;47.770;11.150;2024-03-02T09:16:46;9.15;;;1.95;;
67544;SDS011;54380;47.770;11.150;2024-03-02T09:19:12;9.77;;;2.13;;
67544;SDS011;54380;47.770;11.150;2024-03-02T09:21:39;8.93;;;2.15;;
67544;SDS011;54380;47.770;11.150;2024-03-02T09:24:08;8.88;;;2.08;;
67544;SDS011;54380;47.770;11.150;2024-03-02T09:26:36;7.95;;;1.70;;
67544;SDS011;54380;47.770;11.150;2024-03-02T09:29:04;9.30;;;1.98;;
67544;SDS011;54380;47.770;11.150;2024-03-02T09:31:31;10.38;;;2.20;;
67544;SDS011;54380;47.770;11.150;2024-03-02T09:33:57;9.10;;;2.13;;
67544;SDS011;54380;47.770;11.150;2024-03-02T09:36:24;9.77;;;2.08;;
67544;SDS011;54380;47.770;11.150;2024-03-02T09:38:51;9.63;;;1.88;;
67544;SDS011;54380;47.770;11.150;2024-03-02T09:41:18;13.73;;;2.40;;
67544;SDS011;54380;47.770;11.150;2024-03-02T09:43:46;11.18;;;2.35;;
67544;SDS011;54380;47.770;11.150;2024-03-02T09:46:14;10.65;;;2.50;;
67544;SDS011;54380;47.770;11.150;2024-03-02T09:48:41;11.57;;;3.15;;
67544;SDS011;54380;47.770;11.150;2024-03-02T09:51:10;12.80;;;3.72;;
67544;SDS011;54380;47.770;11.150;2024-03-02T09:53:37;12.93;;;3.85;;
67544;SDS011;54380;47.770;11.150;2024-03-02T09:56:05;12.23;;;3.28;;
67544;SDS011;54380;47.770;11.150;2024-03-02T09:58:32;12.70;;;3.42;;
67544;SDS011;54380;47.770;11.150;2024-03-02T10:00:58;11.55;;;3.03;;
67544;SDS011;54380;47.770;11.150;2024-03-02T10:03:26;10.88;;;2.70;;
67544;SDS011;54380;47.770;11.150;2024-03-02T10:05:55;11.45;;;2.80;;
67544;SDS011;54380;47.770;11.150;2024-03-02T10:08:22;12.07;;;3.75;;
67544;SDS011;54380;47.770;11.150;2024-03-02T10:10:49;9.50;;;2.05;;
67544;SDS011;54380;47.770;11.150;2024-03-02T10:13:16;9.68;;;2.35;;
67544;SDS011;54380;47.770;11.150;2024-03-02T10:15:44;8.15;;;1.25;;
67544;SDS011;54380;47.770;11.150;2024-03-02T10:18:11;7.05;;;1.55;;
67544;SDS011;54380;47.770;11.150;2024-03-02T10:20:40;8.45;;;1.67;;
67544;SDS011;54380;47.770;11.150;2024-03-02T10:23:11;7.43;;;1.42;;
67544;SDS011;54380;47.770;11.150;2024-03-02T10:25:38;7.70;;;1.83;;
67544;SDS011;54380;47.770;11.150;2024-03-02T10:28:19;6.75;;;1.38;;
67544;SDS011;54380;47.770;11.150;2024-03-02T10:30:47;8.85;;;1.23;;
67544;SDS011;54380;47.770;11.150;2024-03-02T10:35:45;5.22;;;0.93;;
67544;SDS011;54380;47.770;11.150;2024-03-02T10:38:11;5.43;;;1.05;;
67544;SDS011;54380;47.770;11.150;2024-03-02T10:40:38;4.30;;;0.73;;
67544;SDS011;54380;47.770;11.150;2024-03-02T10:43:05;6.13;;;0.75;;
67544;SDS011;54380;47.770;11.150;2024-03-02T10:45:34;7.53;;;0.90;;
67544;SDS011;54380;47.770;11.150;2024-03-02T10:48:01;6.88;;;1.25;;
67544;SDS011;54380;47.770;11.150;2024-03-02T10:50:28;6.30;;;1.30;;
67544;SDS011;54380;47.770;11.150;2024-03-02T10:52:57;6.35;;;1.05;;
67544;SDS011;54380;47.770;11.150;2024-03-02T10:55:24;7.15;;;1.50;;
67544;SDS011;54380;47.770;11.150;2024-03-02T10:57:51;7.55;;;1.23;;
67544;SDS011;54380;47.770;11.150;2024-03-02T11:00:24;6.53;;;1.00;;
67544;SDS011;54380;47.770;11.150;2024-03-02T11:02:56;7.60;;;1.20;;
67544;SDS011;54380;47.770;11.150;2024-03-02T11:05:26;7.03;;;1.13;;
67544;SDS011;54380;47.770;11.150;2024-03-02T11:07:57;7.00;;;1.63;;
67544;SDS011;54380;47.770;11.150;2024-03-02T11:10:32;6.78;;;1.52;;
67544;SDS011;54380;47.770;11.150;2024-03-02T11:13:02;7.13;;;1.02;;
67544;SDS011;54380;47.770;11.150;2024-03-02T11:15:32;6.85;;;1.27;;
67544;SDS011;54380;47.770;11.150;2024-03-02T11:18:01;6.25;;;1.40;;
67544;SDS011;54380;47.770;11.150;2024-03-02T11:20:31;6.95;;;1.10;;
67544;SDS011;54380;47.770;11.150;2024-03-02T11:23:05;6.00;;;1.25;;
67544;SDS011;54380;47.770;11.150;2024-03-02T11:25:33;6.75;;;1.20;;
67544;SDS011;54380;47.770;11.150;2024-03-02T11:28:00;5.50;;;1.00;;
67544;SDS011;54380;47.770;11.150;2024-03-02T11:33:15;6.47;;;1.10;;
67544;SDS011;54380;47.770;11.150;2024-03-02T11:35:50;6.20;;;1.40;;
67544;SDS011;54380;47.770;11.150;2024-03-02T11:38:18;5.45;;;1.02;;
67544;SDS011;54380;47.770;11.150;2024-03-02T11:43:13;4.10;;;0.68;;
67544;SDS011;54380;47.770;11.150;2024-03-02T11:45:41;6.85;;;1.02;;
67544;SDS011;54380;47.770;11.150;2024-03-02T11:48:11;5.40;;;0.90;;
67544;SDS011;54380;47.770;11.150;2024-03-02T11:50:40;5.43;;;1.10;;
67544;SDS011;54380;47.770;11.150;2024-03-02T11:53:09;5.00;;;0.93;;
67544;SDS011;54380;47.770;11.150;2024-03-02T11:55:41;5.25;;;0.80;;
67544;SDS011;54380;47.770;11.150;2024-03-02T11:58:13;4.20;;;0.80;;
67544;SDS011;54380;47.770;11.150;2024-03-02T12:00:46;4.57;;;0.68;;
67544;SDS011;54380;47.770;11.150;2024-03-02T12:03:13;5.50;;;0.90;;
67544;SDS011;54380;47.770;11.150;2024-03-02T12:05:41;4.13;;;0.60;;
67544;SDS011;54380;47.770;11.150;2024-03-02T12:08:08;5.63;;;0.90;;
67544;SDS011;54380;47.770;11.150;2024-03-02T12:10:36;4.28;;;0.70;;
67544;SDS011;54380;47.770;11.150;2024-03-02T12:13:05;6.30;;;1.10;;
67544;SDS011;54380;47.770;11.150;2024-03-02T12:15:34;5.75;;;0.80;;
67544;SDS011;54380;47.770;11.150;2024-03-02T12:18:03;5.40;;;0.82;;
67544;SDS011;54380;47.770;11.150;2024-03-02T12:20:32;3.95;;;0.80;;
67544;SDS011;54380;47.770;11.150;2024-03-02T12:23:00;4.63;;;0.82;;
67544;SDS011;54380;47.770;11.150;2024-03-02T12:25:27;6.15;;;1.00;;
67544;SDS011;54380;47.770;11.150;2024-03-02T12:27:56;4.43;;;0.70;;
67544;SDS011;54380;47.770;11.150;2024-03-02T12:30:26;5.88;;;0.88;;
67544;SDS011;54380;47.770;11.150;2024-03-02T12:32:57;8.60;;;1.08;;
67544;SDS011;54380;47.770;11.150;2024-03-02T12:35:24;7.90;;;1.50;;
67544;SDS011;54380;47.770;11.150;2024-03-02T12:37:52;6.90;;;1.00;;
67544;SDS011;54380;47.770;11.150;2024-03-02T12:40:20;6.88;;;1.33;;
67544;SDS011;54380;47.770;11.150;2024-03-02T12:42:50;5.88;;;0.93;;
67544;SDS011;54380;47.770;11.150;2024-03-02T12:45:18;8.35;;;1.35;;
67544;SDS011;54380;47.770;11.150;2024-03-02T12:47:55;8.57;;;1.20;;
67544;SDS011;54380;47.770;11.150;2024-03-02T12:50:21;7.55;;;1.20;;
67544;SDS011;54380;47.770;11.150;2024-03-02T12:52:51;5.15;;;0.80;;
67544;SDS011;54380;47.770;11.150;2024-03-02T12:55:20;7.43;;;1.52;;
67544;SDS011;54380;47.770;11.150;2024-03-02T12:57:49;8.30;;;1.20;;
67544;SDS011;54380;47.770;11.150;2024-03-02T13:00:17;7.78;;;1.30;;
67544;SDS011;54380;47.770;11.150;2024-03-02T13:02:45;9.90;;;2.10;;
67544;SDS011;54380;47.770;11.150;2024-03-02T13:05:14;8.43;;;1.45;;
67544;SDS011;54380;47.770;11.150;2024-03-02T13:07:41;9.75;;;1.88;;
67544;SDS011;54380;47.770;11.150;2024-03-02T13:10:08;8.77;;;1.73;;
67544;SDS011;54380;47.770;11.150;2024-03-02T13:12:36;9.25;;;1.83;;
67544;SDS011;54380;47.770;11.150;2024-03-02T13:15:04;8.05;;;1.42;;
67544;SDS011;54380;47.770;11.150;2024-03-02T13:17:34;8.00;;;1.40;;
67544;SDS011;54380;47.770;11.150;2024-03-02T13:20:04;9.32;;;2.35;;
67544;SDS011;54380;47.770;11.150;2024-03-02T13:22:38;10.75;;;2.00;;
67544;SDS011;54380;47.770;11.150;2024-03-02T13:25:04;8.45;;;1.67;;
67544;SDS011;54380;47.770;11.150;2024-03-02T13:27:33;12.60;;;2.28;;
67544;SDS011;54380;47.770;11.150;2024-03-02T13:30:01;10.85;;;2.22;;
67544;SDS011;54380;47.770;11.150;2024-03-02T13:32:28;9.43;;;2.22;;
67544;SDS011;54380;47.770;11.150;2024-03-02T13:34:54;8.02;;;1.55;;
67544;SDS011;54380;47.770;11.150;2024-03-02T13:37:21;9.18;;;1.67;;
67544;SDS011;54380;47.770;11.150;2024-03-02T13:39:50;11.43;;;2.63;;
67544;SDS011;54380;47.770;11.150;2024-03-02T13:42:17;11.18;;;2.65;;
67544;SDS011;54380;47.770;11.150;2024-03-02T13:44:44;9.68;;;2.15;;
67544;SDS011;54380;47.770;11.150;2024-03-02T13:47:17;12.45;;;2.75;;
67544;SDS011;54380;47.770;11.150;2024-03-02T13:49:44;9.13;;;2.03;;
67544;SDS011;54380;47.770;11.150;2024-03-02T13:52:13;11.75;;;2.63;;
67544;SDS011;54380;47.770;11.150;2024-03-02T13:54:40;8.45;;;2.15;;
67544;SDS011;54380;47.770;11.150;2024-03-02T13:57:10;10.10;;;1.90;;
67544;SDS011;54380;47.770;11.150;2024-03-02T14:02:04;12.85;;;2.67;;
67544;SDS011;54380;47.770;11.150;2024-03-02T14:04:32;11.07;;;2.15;;
67544;SDS011;54380;47.770;11.150;2024-03-02T14:06:59;12.25;;;3.63;;
67544;SDS011;54380;47.770;11.150;2024-03-02T14:09:27;11.55;;;2.90;;
67544;SDS011;54380;47.770;11.150;2024-03-02T14:11:54;11.45;;;2.13;;
67544;SDS011;54380;47.770;11.150;2024-03-02T14:14:23;12.48;;;1.77;;
67544;SDS011;54380;47.770;11.150;2024-03-02T14:16:50;12.85;;;3.00;;
67544;SDS011;54380;47.770;11.150;2024-03-02T14:19:18;11.65;;;2.10;;
67544;SDS011;54380;47.770;11.150;2024-03-02T14:21:44;10.80;;;2.08;;
67544;SDS011;54380;47.770;11.150;2024-03-02T14:24:12;9.45;;;1.88;;
67544;SDS011;54380;47.770;11.150;2024-03-02T14:26:39;9.35;;;1.85;;
67544;SDS011;54380;47.770;11.150;2024-03-02T14:29:07;10.88;;;2.20;;
67544;SDS011;54380;47.770;11.150;2024-03-02T14:31:36;9.38;;;1.42;;
67544;SDS011;54380;47.770;11.150;2024-03-02T14:34:02;9.57;;;1.73;;
67544;SDS011;54380;47.770;11.150;2024-03-02T14:36:30;8.63;;;1.52;;
67544;SDS011;54380;47.770;11.150;2024-03-02T14:38:57;8.52;;;1.20;;
67544;SDS011;54380;47.770;11.150;2024-03-02T14:41:23;8.27;;;1.33;;
67544;SDS011;54380;47.770;11.150;2024-03-02T14:43:51;8.88;;;1.33;;
67544;SDS011;54380;47.770;11.150;2024-03-02T14:46:18;9.55;;;1.60;;